sensor_id;sensor_type;location;lat;lon;timestamp;P1;durP1;ratioP1;P2;durP2;ratioP2
70733;SDS011;58320;48.804;9.252;2023-10-13T00:00:26;7.88;;;3.92;;
70733;SDS011;58320;48.804;9.252;2023-10-13T00:02:58;10.50;;;4.50;;
70733;SDS011;58320;48.804;9.252;2023-10-13T00:05:30;11.63;;;3.92;;
70733;SDS011;58320;48.804;9.252;2023-10-13T00:07:57;8.80;;;4.53;;
70733;SDS011;58320;48.804;9.252;2023-10-13T00:10:30;7.80;;;3.85;;
70733;SDS011;58320;48.804;9.252;2023-10-13T00:12:58;9.85;;;4.35;;
70733;SDS011;58320;48.804;9.252;2023-10-13T00:15:33;7.43;;;3.90;;
70733;SDS011;58320;48.804;9.252;2023-10-13T00:18:28;7.45;;;3.85;;
70733;SDS011;58320;48.804;9.252;2023-10-13T00:20:59;8.35;;;3.35;;
70733;SDS011;58320;48.804;9.252;2023-10-13T00:23:37;7.72;;;3.75;;
70733;SDS011;58320;48.804;9.252;2023-10-13T00:26:04;7.55;;;3.72;;
70733;SDS011;58320;48.804;9.252;2023-10-13T00:28:34;9.27;;;3.77;;
70733;SDS011;58320;48.804;9.252;2023-10-13T00:31:11;10.10;;;3.85;;
70733;SDS011;58320;48.804;9.252;2023-10-13T00:33:39;8.38;;;3.13;;
70733;SDS011;58320;48.804;9.252;2023-10-13T00:36:11;10.00;;;4.00;;
70733;SDS011;58320;48.804;9.252;2023-10-13T00:38:44;9.43;;;3.53;;
70733;SDS011;58320;48.804;9.252;2023-10-13T00:41:13;6.17;;;3.27;;
70733;SDS011;58320;48.804;9.252;2023-10-13T00:43:45;7.72;;;3.63;;
70733;SDS011;58320;48.804;9.252;2023-10-13T00:46:32;6.32;;;3.53;;
70733;SDS011;58320;48.804;9.252;2023-10-13T00:49:00;12.45;;;3.75;;
70733;SDS011;58320;48.804;9.252;2023-10-13T00:51:31;7.97;;;3.47;;
70733;SDS011;58320;48.804;9.252;2023-10-13T00:54:03;6.80;;;3.20;;
70733;SDS011;58320;48.804;9.252;2023-10-13T00:56:40;7.85;;;3.60;;
70733;SDS011;58320;48.804;9.252;2023-10-13T00:59:33;8.13;;;3.78;;
70733;SDS011;58320;48.804;9.252;2023-10-13T01:02:00;7.13;;;3.50;;
70733;SDS011;58320;48.804;9.252;2023-10-13T01:04:46;7.25;;;3.22;;
70733;SDS011;58320;48.804;9.252;2023-10-13T01:07:13;7.77;;;3.83;;
70733;SDS011;58320;48.804;9.252;2023-10-13T01:09:44;10.13;;;3.80;;
70733;SDS011;58320;48.804;9.252;2023-10-13T01:12:12;8.32;;;3.20;;
70733;SDS011;58320;48.804;9.252;2023-10-13T01:14:38;7.07;;;3.33;;
70733;SDS011;58320;48.804;9.252;2023-10-13T01:17:04;6.35;;;3.50;;
70733;SDS011;58320;48.804;9.252;2023-10-13T01:19:29;6.90;;;3.17;;
70733;SDS011;58320;48.804;9.252;2023-10-13T01:22:03;8.13;;;3.30;;
70733;SDS011;58320;48.804;9.252;2023-10-13T01:24:31;9.40;;;3.40;;
70733;SDS011;58320;48.804;9.252;2023-10-13T01:27:00;8.10;;;2.93;;
70733;SDS011;58320;48.804;9.252;2023-10-13T01:29:43;9.25;;;3.33;;
70733;SDS011;58320;48.804;9.252;2023-10-13T01:32:21;9.98;;;3.25;;
70733;SDS011;58320;48.804;9.252;2023-10-13T01:34:47;9.45;;;3.50;;
70733;SDS011;58320;48.804;9.252;2023-10-13T01:37:14;7.22;;;3.50;;
70733;SDS011;58320;48.804;9.252;2023-10-13T01:39:41;7.97;;;3.07;;
70733;SDS011;58320;48.804;9.252;2023-10-13T01:42:07;12.98;;;3.60;;
70733;SDS011;58320;48.804;9.252;2023-10-13T01:44:33;6.70;;;3.58;;
70733;SDS011;58320;48.804;9.252;2023-10-13T01:46:59;8.85;;;3.63;;
70733;SDS011;58320;48.804;9.252;2023-10-13T01:49:32;9.27;;;3.50;;
70733;SDS011;58320;48.804;9.252;2023-10-13T01:52:06;8.00;;;3.50;;
70733;SDS011;58320;48.804;9.252;2023-10-13T01:54:36;9.32;;;3.30;;
70733;SDS011;58320;48.804;9.252;2023-10-13T01:57:06;9.43;;;3.40;;
70733;SDS011;58320;48.804;9.252;2023-10-13T01:59:39;8.82;;;3.72;;
70733;SDS011;58320;48.804;9.252;2023-10-13T02:02:12;9.13;;;3.63;;
70733;SDS011;58320;48.804;9.252;2023-10-13T02:04:41;8.33;;;3.53;;
70733;SDS011;58320;48.804;9.252;2023-10-13T02:07:08;7.82;;;3.58;;
70733;SDS011;58320;48.804;9.252;2023-10-13T02:09:39;8.85;;;3.85;;
70733;SDS011;58320;48.804;9.252;2023-10-13T02:12:05;9.52;;;3.55;;
70733;SDS011;58320;48.804;9.252;2023-10-13T02:14:31;8.37;;;3.77;;
70733;SDS011;58320;48.804;9.252;2023-10-13T02:16:58;8.98;;;3.40;;
70733;SDS011;58320;48.804;9.252;2023-10-13T02:19:39;8.07;;;3.88;;
70733;SDS011;58320;48.804;9.252;2023-10-13T02:22:09;12.57;;;3.83;;
70733;SDS011;58320;48.804;9.252;2023-10-13T02:24:53;9.85;;;3.80;;
70733;SDS011;58320;48.804;9.252;2023-10-13T02:27:26;8.80;;;3.58;;
70733;SDS011;58320;48.804;9.252;2023-10-13T02:29:52;8.38;;;3.50;;
70733;SDS011;58320;48.804;9.252;2023-10-13T02:32:23;8.63;;;3.42;;
70733;SDS011;58320;48.804;9.252;2023-10-13T02:34:51;7.13;;;3.50;;
70733;SDS011;58320;48.804;9.252;2023-10-13T02:37:17;7.72;;;3.33;;
70733;SDS011;58320;48.804;9.252;2023-10-13T02:39:44;6.97;;;3.03;;
70733;SDS011;58320;48.804;9.252;2023-10-13T02:42:10;11.57;;;4.07;;
70733;SDS011;58320;48.804;9.252;2023-10-13T02:44:48;9.63;;;3.20;;
70733;SDS011;58320;48.804;9.252;2023-10-13T02:47:14;6.32;;;3.20;;
70733;SDS011;58320;48.804;9.252;2023-10-13T02:49:40;8.88;;;3.60;;
70733;SDS011;58320;48.804;9.252;2023-10-13T02:52:11;9.63;;;3.83;;
70733;SDS011;58320;48.804;9.252;2023-10-13T02:54:37;6.80;;;3.10;;
70733;SDS011;58320;48.804;9.252;2023-10-13T02:57:12;9.63;;;4.05;;
70733;SDS011;58320;48.804;9.252;2023-10-13T02:59:41;6.97;;;4.43;;
70733;SDS011;58320;48.804;9.252;2023-10-13T03:02:37;7.90;;;3.47;;
70733;SDS011;58320;48.804;9.252;2023-10-13T03:05:08;8.73;;;3.73;;
70733;SDS011;58320;48.804;9.252;2023-10-13T03:07:35;12.65;;;3.40;;
70733;SDS011;58320;48.804;9.252;2023-10-13T03:10:02;7.60;;;3.17;;
70733;SDS011;58320;48.804;9.252;2023-10-13T03:12:44;8.60;;;3.67;;
70733;SDS011;58320;48.804;9.252;2023-10-13T03:15:13;7.90;;;3.37;;
70733;SDS011;58320;48.804;9.252;2023-10-13T03:17:43;9.48;;;3.60;;
70733;SDS011;58320;48.804;9.252;2023-10-13T03:20:13;10.30;;;3.38;;
70733;SDS011;58320;48.804;9.252;2023-10-13T03:22:44;9.00;;;3.50;;
70733;SDS011;58320;48.804;9.252;2023-10-13T03:25:10;5.53;;;2.88;;
70733;SDS011;58320;48.804;9.252;2023-10-13T03:27:49;15.27;;;3.60;;
70733;SDS011;58320;48.804;9.252;2023-10-13T03:30:16;7.05;;;3.50;;
70733;SDS011;58320;48.804;9.252;2023-10-13T03:32:42;8.90;;;3.05;;
70733;SDS011;58320;48.804;9.252;2023-10-13T03:35:11;8.75;;;3.63;;
70733;SDS011;58320;48.804;9.252;2023-10-13T03:37:52;8.38;;;3.70;;
70733;SDS011;58320;48.804;9.252;2023-10-13T03:40:19;8.63;;;3.90;;
70733;SDS011;58320;48.804;9.252;2023-10-13T03:42:51;11.73;;;3.60;;
70733;SDS011;58320;48.804;9.252;2023-10-13T03:45:34;8.10;;;3.50;;
70733;SDS011;58320;48.804;9.252;2023-10-13T03:48:11;13.68;;;3.75;;
70733;SDS011;58320;48.804;9.252;2023-10-13T03:50:51;8.65;;;3.45;;
70733;SDS011;58320;48.804;9.252;2023-10-13T03:53:35;10.03;;;3.40;;
70733;SDS011;58320;48.804;9.252;2023-10-13T03:56:17;10.32;;;3.88;;
70733;SDS011;58320;48.804;9.252;2023-10-13T03:58:57;6.65;;;3.50;;
70733;SDS011;58320;48.804;9.252;2023-10-13T04:01:31;6.88;;;3.42;;
70733;SDS011;58320;48.804;9.252;2023-10-13T04:04:09;7.55;;;3.50;;
70733;SDS011;58320;48.804;9.252;2023-10-13T04:06:55;9.43;;;4.10;;
70733;SDS011;58320;48.804;9.252;2023-10-13T04:09:39;8.70;;;3.30;;
70733;SDS011;58320;48.804;9.252;2023-10-13T04:12:06;7.88;;;3.65;;
70733;SDS011;58320;48.804;9.252;2023-10-13T04:14:37;10.23;;;4.10;;
70733;SDS011;58320;48.804;9.252;2023-10-13T04:17:23;6.63;;;3.38;;
70733;SDS011;58320;48.804;9.252;2023-10-13T04:19:53;8.93;;;3.17;;
70733;SDS011;58320;48.804;9.252;2023-10-13T04:22:34;8.32;;;3.35;;
70733;SDS011;58320;48.804;9.252;2023-10-13T04:25:11;7.68;;;3.60;;
70733;SDS011;58320;48.804;9.252;2023-10-13T04:28:03;6.03;;;3.40;;
70733;SDS011;58320;48.804;9.252;2023-10-13T04:30:43;7.57;;;2.97;;
70733;SDS011;58320;48.804;9.252;2023-10-13T04:33:20;8.70;;;3.03;;
70733;SDS011;58320;48.804;9.252;2023-10-13T04:36:08;10.85;;;3.90;;
70733;SDS011;58320;48.804;9.252;2023-10-13T04:38:56;8.85;;;3.70;;
70733;SDS011;58320;48.804;9.252;2023-10-13T04:41:34;7.82;;;3.80;;
70733;SDS011;58320;48.804;9.252;2023-10-13T04:44:05;7.25;;;3.55;;
70733;SDS011;58320;48.804;9.252;2023-10-13T04:46:50;11.13;;;3.50;;
70733;SDS011;58320;48.804;9.252;2023-10-13T04:49:16;8.00;;;3.78;;
70733;SDS011;58320;48.804;9.252;2023-10-13T04:51:59;8.02;;;3.90;;
70733;SDS011;58320;48.804;9.252;2023-10-13T04:54:44;8.77;;;3.72;;
70733;SDS011;58320;48.804;9.252;2023-10-13T04:57:11;8.10;;;3.70;;
70733;SDS011;58320;48.804;9.252;2023-10-13T04:59:56;7.77;;;3.57;;
70733;SDS011;58320;48.804;9.252;2023-10-13T05:02:42;9.85;;;3.97;;
70733;SDS011;58320;48.804;9.252;2023-10-13T05:05:22;8.52;;;3.65;;
70733;SDS011;58320;48.804;9.252;2023-10-13T05:07:51;9.55;;;3.92;;
70733;SDS011;58320;48.804;9.252;2023-10-13T05:10:36;8.90;;;3.70;;
70733;SDS011;58320;48.804;9.252;2023-10-13T05:13:21;11.17;;;3.57;;
70733;SDS011;58320;48.804;9.252;2023-10-13T05:16:05;9.80;;;3.75;;
70733;SDS011;58320;48.804;9.252;2023-10-13T05:18:49;8.75;;;3.40;;
70733;SDS011;58320;48.804;9.252;2023-10-13T05:21:33;10.82;;;3.50;;
70733;SDS011;58320;48.804;9.252;2023-10-13T05:24:19;10.18;;;3.35;;
70733;SDS011;58320;48.804;9.252;2023-10-13T05:27:04;8.97;;;3.80;;
70733;SDS011;58320;48.804;9.252;2023-10-13T05:29:48;10.10;;;3.40;;
70733;SDS011;58320;48.804;9.252;2023-10-13T05:32:32;8.80;;;3.63;;
70733;SDS011;58320;48.804;9.252;2023-10-13T05:35:17;8.60;;;4.05;;
70733;SDS011;58320;48.804;9.252;2023-10-13T05:38:14;7.82;;;4.32;;
70733;SDS011;58320;48.804;9.252;2023-10-13T05:40:59;7.33;;;4.60;;
70733;SDS011;58320;48.804;9.252;2023-10-13T05:43:46;10.60;;;3.42;;
70733;SDS011;58320;48.804;9.252;2023-10-13T05:46:30;12.30;;;3.60;;
70733;SDS011;58320;48.804;9.252;2023-10-13T05:49:02;8.98;;;3.58;;
70733;SDS011;58320;48.804;9.252;2023-10-13T05:51:42;8.32;;;3.60;;
70733;SDS011;58320;48.804;9.252;2023-10-13T05:54:33;8.73;;;3.53;;
70733;SDS011;58320;48.804;9.252;2023-10-13T05:57:17;14.02;;;3.70;;
70733;SDS011;58320;48.804;9.252;2023-10-13T06:00:01;8.55;;;3.80;;
70733;SDS011;58320;48.804;9.252;2023-10-13T06:02:46;8.90;;;3.55;;
70733;SDS011;58320;48.804;9.252;2023-10-13T06:05:30;6.97;;;3.88;;
70733;SDS011;58320;48.804;9.252;2023-10-13T06:08:14;9.20;;;3.80;;
70733;SDS011;58320;48.804;9.252;2023-10-13T06:11:02;8.60;;;3.88;;
70733;SDS011;58320;48.804;9.252;2023-10-13T06:13:47;7.25;;;3.53;;
70733;SDS011;58320;48.804;9.252;2023-10-13T06:16:46;11.15;;;3.65;;
70733;SDS011;58320;48.804;9.252;2023-10-13T06:19:30;11.60;;;3.78;;
70733;SDS011;58320;48.804;9.252;2023-10-13T06:22:14;11.87;;;4.10;;
70733;SDS011;58320;48.804;9.252;2023-10-13T06:24:58;7.82;;;3.65;;
70733;SDS011;58320;48.804;9.252;2023-10-13T06:27:42;9.18;;;3.90;;
70733;SDS011;58320;48.804;9.252;2023-10-13T06:30:26;9.70;;;4.10;;
70733;SDS011;58320;48.804;9.252;2023-10-13T06:32:52;7.80;;;3.47;;
70733;SDS011;58320;48.804;9.252;2023-10-13T06:35:18;11.55;;;3.92;;
70733;SDS011;58320;48.804;9.252;2023-10-13T06:37:49;9.23;;;3.92;;
70733;SDS011;58320;48.804;9.252;2023-10-13T06:40:16;12.52;;;4.05;;
70733;SDS011;58320;48.804;9.252;2023-10-13T06:42:51;8.83;;;4.00;;
70733;SDS011;58320;48.804;9.252;2023-10-13T06:45:19;9.77;;;3.83;;
70733;SDS011;58320;48.804;9.252;2023-10-13T06:47:47;11.43;;;3.88;;
70733;SDS011;58320;48.804;9.252;2023-10-13T06:50:18;7.20;;;3.80;;
70733;SDS011;58320;48.804;9.252;2023-10-13T06:52:50;10.38;;;4.22;;
70733;SDS011;58320;48.804;9.252;2023-10-13T06:55:20;7.80;;;3.63;;
70733;SDS011;58320;48.804;9.252;2023-10-13T06:57:52;7.85;;;4.05;;
70733;SDS011;58320;48.804;9.252;2023-10-13T07:00:18;8.43;;;3.80;;
70733;SDS011;58320;48.804;9.252;2023-10-13T07:02:59;11.05;;;4.10;;
70733;SDS011;58320;48.804;9.252;2023-10-13T07:05:37;8.43;;;3.78;;
70733;SDS011;58320;48.804;9.252;2023-10-13T07:08:09;12.83;;;3.87;;
70733;SDS011;58320;48.804;9.252;2023-10-13T07:10:52;8.95;;;3.95;;
70733;SDS011;58320;48.804;9.252;2023-10-13T07:13:42;7.50;;;3.90;;
70733;SDS011;58320;48.804;9.252;2023-10-13T07:16:15;8.73;;;3.97;;
70733;SDS011;58320;48.804;9.252;2023-10-13T07:18:40;9.32;;;3.80;;
70733;SDS011;58320;48.804;9.252;2023-10-13T07:21:15;11.07;;;4.73;;
70733;SDS011;58320;48.804;9.252;2023-10-13T07:23:41;9.02;;;3.47;;
70733;SDS011;58320;48.804;9.252;2023-10-13T07:26:25;10.05;;;4.00;;
70733;SDS011;58320;48.804;9.252;2023-10-13T07:28:51;10.90;;;3.67;;
70733;SDS011;58320;48.804;9.252;2023-10-13T07:31:17;7.57;;;3.60;;
70733;SDS011;58320;48.804;9.252;2023-10-13T07:33:45;12.90;;;3.80;;
70733;SDS011;58320;48.804;9.252;2023-10-13T07:36:12;8.60;;;3.47;;
70733;SDS011;58320;48.804;9.252;2023-10-13T07:38:42;13.18;;;3.65;;
70733;SDS011;58320;48.804;9.252;2023-10-13T07:41:13;9.10;;;3.50;;
70733;SDS011;58320;48.804;9.252;2023-10-13T07:43:41;9.80;;;3.77;;
70733;SDS011;58320;48.804;9.252;2023-10-13T07:46:08;9.32;;;4.00;;
70733;SDS011;58320;48.804;9.252;2023-10-13T07:48:38;10.50;;;3.70;;
70733;SDS011;58320;48.804;9.252;2023-10-13T07:51:10;9.07;;;3.70;;
70733;SDS011;58320;48.804;9.252;2023-10-13T07:53:40;7.90;;;3.58;;
70733;SDS011;58320;48.804;9.252;2023-10-13T07:56:08;8.93;;;3.43;;
70733;SDS011;58320;48.804;9.252;2023-10-13T07:58:38;8.57;;;3.70;;
70733;SDS011;58320;48.804;9.252;2023-10-13T08:01:25;9.30;;;3.90;;
70733;SDS011;58320;48.804;9.252;2023-10-13T08:03:52;11.23;;;3.97;;
70733;SDS011;58320;48.804;9.252;2023-10-13T08:06:33;10.50;;;3.78;;
70733;SDS011;58320;48.804;9.252;2023-10-13T08:09:01;10.17;;;3.93;;
70733;SDS011;58320;48.804;9.252;2023-10-13T08:11:34;9.52;;;3.65;;
70733;SDS011;58320;48.804;9.252;2023-10-13T08:14:02;11.88;;;4.15;;
70733;SDS011;58320;48.804;9.252;2023-10-13T08:16:56;8.48;;;3.63;;
70733;SDS011;58320;48.804;9.252;2023-10-13T08:19:32;9.68;;;3.55;;
70733;SDS011;58320;48.804;9.252;2023-10-13T08:22:05;10.07;;;3.73;;
70733;SDS011;58320;48.804;9.252;2023-10-13T08:24:46;11.32;;;3.90;;
70733;SDS011;58320;48.804;9.252;2023-10-13T08:27:14;13.75;;;3.55;;
70733;SDS011;58320;48.804;9.252;2023-10-13T08:30:13;10.68;;;3.40;;
70733;SDS011;58320;48.804;9.252;2023-10-13T08:32:51;8.05;;;3.58;;
70733;SDS011;58320;48.804;9.252;2023-10-13T08:35:20;8.80;;;3.60;;
70733;SDS011;58320;48.804;9.252;2023-10-13T08:37:55;9.90;;;3.38;;
70733;SDS011;58320;48.804;9.252;2023-10-13T08:40:26;7.05;;;3.08;;
70733;SDS011;58320;48.804;9.252;2023-10-13T08:43:10;10.50;;;3.40;;
70733;SDS011;58320;48.804;9.252;2023-10-13T08:45:37;9.48;;;3.60;;
70733;SDS011;58320;48.804;9.252;2023-10-13T08:48:10;7.13;;;3.27;;
70733;SDS011;58320;48.804;9.252;2023-10-13T08:53:20;9.43;;;3.67;;
70733;SDS011;58320;48.804;9.252;2023-10-13T08:56:09;12.68;;;3.30;;
70733;SDS011;58320;48.804;9.252;2023-10-13T09:01:36;8.07;;;3.40;;
70733;SDS011;58320;48.804;9.252;2023-10-13T09:04:16;10.68;;;3.47;;
70733;SDS011;58320;48.804;9.252;2023-10-13T09:06:55;9.00;;;3.70;;
70733;SDS011;58320;48.804;9.252;2023-10-13T09:14:39;8.80;;;3.27;;
70733;SDS011;58320;48.804;9.252;2023-10-13T09:17:10;10.93;;;3.22;;
70733;SDS011;58320;48.804;9.252;2023-10-13T09:19:49;8.75;;;3.25;;
70733;SDS011;58320;48.804;9.252;2023-10-13T09:25:01;11.77;;;3.50;;
70733;SDS011;58320;48.804;9.252;2023-10-13T09:27:38;8.90;;;3.20;;
70733;SDS011;58320;48.804;9.252;2023-10-13T09:30:04;8.80;;;4.00;;
70733;SDS011;58320;48.804;9.252;2023-10-13T09:32:46;8.27;;;3.42;;
70733;SDS011;58320;48.804;9.252;2023-10-13T09:35:17;8.80;;;3.33;;
70733;SDS011;58320;48.804;9.252;2023-10-13T09:37:48;10.07;;;3.60;;
70733;SDS011;58320;48.804;9.252;2023-10-13T09:40:16;8.40;;;3.33;;
70733;SDS011;58320;48.804;9.252;2023-10-13T09:42:54;8.30;;;3.53;;
70733;SDS011;58320;48.804;9.252;2023-10-13T09:45:28;9.85;;;3.20;;
70733;SDS011;58320;48.804;9.252;2023-10-13T09:48:09;6.20;;;3.00;;
70733;SDS011;58320;48.804;9.252;2023-10-13T09:50:41;8.32;;;3.38;;
70733;SDS011;58320;48.804;9.252;2023-10-13T09:53:10;10.80;;;3.60;;
70733;SDS011;58320;48.804;9.252;2023-10-13T09:55:42;10.63;;;3.37;;
70733;SDS011;58320;48.804;9.252;2023-10-13T09:58:13;11.82;;;3.70;;
70733;SDS011;58320;48.804;9.252;2023-10-13T10:01:00;7.90;;;3.53;;
70733;SDS011;58320;48.804;9.252;2023-10-13T10:03:45;8.60;;;3.08;;
70733;SDS011;58320;48.804;9.252;2023-10-13T10:06:32;8.15;;;2.70;;
70733;SDS011;58320;48.804;9.252;2023-10-13T10:09:05;8.73;;;2.47;;
70733;SDS011;58320;48.804;9.252;2023-10-13T10:15:06;6.25;;;2.70;;
70733;SDS011;58320;48.804;9.252;2023-10-13T10:17:53;11.00;;;2.97;;
70733;SDS011;58320;48.804;9.252;2023-10-13T10:20:27;10.18;;;2.70;;
70733;SDS011;58320;48.804;9.252;2023-10-13T10:23:06;7.30;;;3.23;;
70733;SDS011;58320;48.804;9.252;2023-10-13T10:25:37;10.47;;;2.80;;
70733;SDS011;58320;48.804;9.252;2023-10-13T10:28:09;5.43;;;2.55;;
70733;SDS011;58320;48.804;9.252;2023-10-13T10:30:40;11.40;;;3.00;;
70733;SDS011;58320;48.804;9.252;2023-10-13T10:33:08;8.75;;;2.90;;
70733;SDS011;58320;48.804;9.252;2023-10-13T10:35:42;7.93;;;2.47;;
70733;SDS011;58320;48.804;9.252;2023-10-13T10:40:49;6.68;;;2.60;;
70733;SDS011;58320;48.804;9.252;2023-10-13T10:43:21;8.27;;;2.55;;
70733;SDS011;58320;48.804;9.252;2023-10-13T10:46:07;8.65;;;2.70;;
70733;SDS011;58320;48.804;9.252;2023-10-13T10:48:37;7.78;;;2.50;;
70733;SDS011;58320;48.804;9.252;2023-10-13T10:51:08;6.87;;;2.30;;
70733;SDS011;58320;48.804;9.252;2023-10-13T10:53:47;8.17;;;2.70;;
70733;SDS011;58320;48.804;9.252;2023-10-13T10:56:15;6.10;;;2.42;;
70733;SDS011;58320;48.804;9.252;2023-10-13T10:59:01;7.32;;;2.67;;
70733;SDS011;58320;48.804;9.252;2023-10-13T11:01:31;7.38;;;2.55;;
70733;SDS011;58320;48.804;9.252;2023-10-13T11:04:04;9.57;;;2.80;;
70733;SDS011;58320;48.804;9.252;2023-10-13T11:06:50;11.47;;;2.40;;
70733;SDS011;58320;48.804;9.252;2023-10-13T11:09:28;7.10;;;2.70;;
70733;SDS011;58320;48.804;9.252;2023-10-13T11:11:56;8.43;;;2.58;;
70733;SDS011;58320;48.804;9.252;2023-10-13T11:14:40;9.50;;;2.78;;
70733;SDS011;58320;48.804;9.252;2023-10-13T11:17:08;7.72;;;2.67;;
70733;SDS011;58320;48.804;9.252;2023-10-13T11:19:45;9.43;;;2.63;;
70733;SDS011;58320;48.804;9.252;2023-10-13T11:24:57;6.60;;;2.40;;
70733;SDS011;58320;48.804;9.252;2023-10-13T11:27:31;7.80;;;2.70;;
70733;SDS011;58320;48.804;9.252;2023-10-13T11:30:10;10.18;;;2.75;;
70733;SDS011;58320;48.804;9.252;2023-10-13T11:32:40;9.73;;;2.90;;
70733;SDS011;58320;48.804;9.252;2023-10-13T11:35:10;8.17;;;2.50;;
70733;SDS011;58320;48.804;9.252;2023-10-13T11:37:46;6.03;;;2.60;;
70733;SDS011;58320;48.804;9.252;2023-10-13T11:40:21;6.40;;;2.53;;
70733;SDS011;58320;48.804;9.252;2023-10-13T11:43:08;8.80;;;2.92;;
70733;SDS011;58320;48.804;9.252;2023-10-13T11:45:47;6.55;;;2.83;;
70733;SDS011;58320;48.804;9.252;2023-10-13T11:48:22;11.23;;;3.20;;
70733;SDS011;58320;48.804;9.252;2023-10-13T11:51:00;9.53;;;2.70;;
70733;SDS011;58320;48.804;9.252;2023-10-13T11:53:32;5.68;;;2.58;;
70733;SDS011;58320;48.804;9.252;2023-10-13T11:55:59;6.25;;;2.33;;
70733;SDS011;58320;48.804;9.252;2023-10-13T11:58:25;8.85;;;2.70;;
70733;SDS011;58320;48.804;9.252;2023-10-13T12:00:51;9.77;;;2.80;;
70733;SDS011;58320;48.804;9.252;2023-10-13T12:03:19;8.45;;;2.83;;
70733;SDS011;58320;48.804;9.252;2023-10-13T12:06:03;8.40;;;2.70;;
70733;SDS011;58320;48.804;9.252;2023-10-13T12:08:47;8.88;;;2.80;;
70733;SDS011;58320;48.804;9.252;2023-10-13T12:11:17;8.75;;;2.63;;
70733;SDS011;58320;48.804;9.252;2023-10-13T12:14:03;8.00;;;2.90;;
70733;SDS011;58320;48.804;9.252;2023-10-13T12:16:41;8.03;;;2.77;;
70733;SDS011;58320;48.804;9.252;2023-10-13T12:19:13;6.82;;;2.75;;
70733;SDS011;58320;48.804;9.252;2023-10-13T12:21:42;7.15;;;2.78;;
70733;SDS011;58320;48.804;9.252;2023-10-13T12:24:13;10.52;;;3.10;;
70733;SDS011;58320;48.804;9.252;2023-10-13T12:26:56;7.47;;;2.80;;
70733;SDS011;58320;48.804;9.252;2023-10-13T12:29:23;10.33;;;2.73;;
70733;SDS011;58320;48.804;9.252;2023-10-13T12:31:53;6.17;;;2.67;;
70733;SDS011;58320;48.804;9.252;2023-10-13T12:34:36;9.52;;;3.10;;
70733;SDS011;58320;48.804;9.252;2023-10-13T12:37:21;11.00;;;2.90;;
70733;SDS011;58320;48.804;9.252;2023-10-13T12:43:03;6.25;;;2.78;;
70733;SDS011;58320;48.804;9.252;2023-10-13T12:45:49;5.20;;;2.60;;
70733;SDS011;58320;48.804;9.252;2023-10-13T12:48:34;6.53;;;2.73;;
70733;SDS011;58320;48.804;9.252;2023-10-13T12:51:24;8.30;;;2.90;;
70733;SDS011;58320;48.804;9.252;2023-10-13T12:54:00;7.50;;;2.60;;
70733;SDS011;58320;48.804;9.252;2023-10-13T12:56:31;6.55;;;2.55;;
70733;SDS011;58320;48.804;9.252;2023-10-13T12:58:57;7.75;;;2.30;;
70733;SDS011;58320;48.804;9.252;2023-10-13T13:01:24;9.60;;;2.60;;
70733;SDS011;58320;48.804;9.252;2023-10-13T13:03:57;5.93;;;2.83;;
70733;SDS011;58320;48.804;9.252;2023-10-13T13:06:27;8.20;;;2.58;;
70733;SDS011;58320;48.804;9.252;2023-10-13T13:08:58;9.65;;;2.90;;
70733;SDS011;58320;48.804;9.252;2023-10-13T13:11:25;6.80;;;3.05;;
70733;SDS011;58320;48.804;9.252;2023-10-13T13:13:54;7.35;;;2.55;;
70733;SDS011;58320;48.804;9.252;2023-10-13T13:16:20;9.47;;;2.70;;
70733;SDS011;58320;48.804;9.252;2023-10-13T13:18:52;5.88;;;2.60;;
70733;SDS011;58320;48.804;9.252;2023-10-13T13:21:21;6.80;;;2.72;;
70733;SDS011;58320;48.804;9.252;2023-10-13T13:23:50;6.82;;;2.75;;
70733;SDS011;58320;48.804;9.252;2023-10-13T13:26:16;8.95;;;2.70;;
70733;SDS011;58320;48.804;9.252;2023-10-13T13:28:45;6.47;;;2.70;;
70733;SDS011;58320;48.804;9.252;2023-10-13T13:31:16;7.20;;;2.40;;
70733;SDS011;58320;48.804;9.252;2023-10-13T13:33:42;7.80;;;2.65;;
70733;SDS011;58320;48.804;9.252;2023-10-13T13:36:11;6.55;;;2.65;;
70733;SDS011;58320;48.804;9.252;2023-10-13T13:38:41;10.00;;;3.00;;
70733;SDS011;58320;48.804;9.252;2023-10-13T13:41:14;9.77;;;3.00;;
70733;SDS011;58320;48.804;9.252;2023-10-13T13:43:44;5.73;;;2.53;;
70733;SDS011;58320;48.804;9.252;2023-10-13T13:46:15;8.70;;;3.13;;
70733;SDS011;58320;48.804;9.252;2023-10-13T13:48:54;8.35;;;2.88;;
70733;SDS011;58320;48.804;9.252;2023-10-13T13:51:26;5.45;;;2.85;;
70733;SDS011;58320;48.804;9.252;2023-10-13T13:53:53;8.15;;;2.92;;
70733;SDS011;58320;48.804;9.252;2023-10-13T13:56:21;5.88;;;2.80;;
70733;SDS011;58320;48.804;9.252;2023-10-13T13:58:50;5.87;;;2.60;;
70733;SDS011;58320;48.804;9.252;2023-10-13T14:01:18;5.63;;;2.63;;
70733;SDS011;58320;48.804;9.252;2023-10-13T14:03:47;5.65;;;2.65;;
70733;SDS011;58320;48.804;9.252;2023-10-13T14:06:25;5.90;;;2.53;;
70733;SDS011;58320;48.804;9.252;2023-10-13T14:08:54;9.35;;;2.60;;
70733;SDS011;58320;48.804;9.252;2023-10-13T14:11:40;6.95;;;2.60;;
70733;SDS011;58320;48.804;9.252;2023-10-13T14:16:39;5.07;;;2.50;;
70733;SDS011;58320;48.804;9.252;2023-10-13T14:19:14;7.40;;;2.65;;
70733;SDS011;58320;48.804;9.252;2023-10-13T14:21:53;7.43;;;2.83;;
70733;SDS011;58320;48.804;9.252;2023-10-13T14:24:20;7.13;;;2.90;;
70733;SDS011;58320;48.804;9.252;2023-10-13T14:26:53;7.72;;;2.70;;
70733;SDS011;58320;48.804;9.252;2023-10-13T14:29:40;7.60;;;2.40;;
70733;SDS011;58320;48.804;9.252;2023-10-13T14:32:11;8.87;;;2.67;;
70733;SDS011;58320;48.804;9.252;2023-10-13T14:34:43;9.30;;;2.72;;
70733;SDS011;58320;48.804;9.252;2023-10-13T14:37:19;5.68;;;2.45;;
70733;SDS011;58320;48.804;9.252;2023-10-13T14:39:52;7.88;;;2.42;;
70733;SDS011;58320;48.804;9.252;2023-10-13T14:42:25;6.25;;;2.50;;
70733;SDS011;58320;48.804;9.252;2023-10-13T14:44:52;8.27;;;2.60;;
70733;SDS011;58320;48.804;9.252;2023-10-13T14:47:24;7.30;;;2.17;;
70733;SDS011;58320;48.804;9.252;2023-10-13T14:49:53;7.80;;;2.20;;
70733;SDS011;58320;48.804;9.252;2023-10-13T14:52:20;5.40;;;2.33;;
70733;SDS011;58320;48.804;9.252;2023-10-13T14:54:49;6.05;;;2.35;;
70733;SDS011;58320;48.804;9.252;2023-10-13T14:57:20;5.28;;;2.35;;
70733;SDS011;58320;48.804;9.252;2023-10-13T14:59:53;7.60;;;2.57;;
70733;SDS011;58320;48.804;9.252;2023-10-13T15:02:20;7.17;;;2.70;;
70733;SDS011;58320;48.804;9.252;2023-10-13T15:04:47;5.28;;;2.20;;
70733;SDS011;58320;48.804;9.252;2023-10-13T15:07:13;6.00;;;2.42;;
70733;SDS011;58320;48.804;9.252;2023-10-13T15:09:41;5.47;;;2.20;;
70733;SDS011;58320;48.804;9.252;2023-10-13T15:12:08;7.43;;;2.40;;
70733;SDS011;58320;48.804;9.252;2023-10-13T15:14:36;5.00;;;2.50;;
70733;SDS011;58320;48.804;9.252;2023-10-13T15:17:07;6.63;;;2.50;;
70733;SDS011;58320;48.804;9.252;2023-10-13T15:19:34;6.05;;;2.28;;
70733;SDS011;58320;48.804;9.252;2023-10-13T15:22:03;6.95;;;2.38;;
70733;SDS011;58320;48.804;9.252;2023-10-13T15:24:33;5.10;;;2.00;;
70733;SDS011;58320;48.804;9.252;2023-10-13T15:27:10;4.82;;;2.30;;
70733;SDS011;58320;48.804;9.252;2023-10-13T15:29:36;7.83;;;2.47;;
70733;SDS011;58320;48.804;9.252;2023-10-13T15:32:03;6.83;;;2.00;;
70733;SDS011;58320;48.804;9.252;2023-10-13T15:34:50;6.50;;;2.25;;
70733;SDS011;58320;48.804;9.252;2023-10-13T15:37:15;7.22;;;2.20;;
70733;SDS011;58320;48.804;9.252;2023-10-13T15:39:41;7.67;;;2.37;;
70733;SDS011;58320;48.804;9.252;2023-10-13T15:42:07;5.20;;;2.10;;
70733;SDS011;58320;48.804;9.252;2023-10-13T15:44:34;3.97;;;2.28;;
70733;SDS011;58320;48.804;9.252;2023-10-13T15:47:00;5.80;;;1.80;;
70733;SDS011;58320;48.804;9.252;2023-10-13T15:49:26;7.53;;;2.40;;
70733;SDS011;58320;48.804;9.252;2023-10-13T15:51:54;4.30;;;2.10;;
70733;SDS011;58320;48.804;9.252;2023-10-13T15:54:22;4.38;;;2.05;;